createdAt,value
2023-04-30T00:01:39.230Z,5.54
2023-04-30T00:03:44.639Z,5.58
2023-04-30T00:05:53.609Z,5.48
2023-04-30T00:07:58.640Z,5.35
2023-04-30T00:10:05.782Z,5.26
2023-04-30T00:12:13.406Z,5.21
2023-04-30T00:14:18.696Z,5.16
2023-04-30T00:16:23.790Z,5.20
2023-04-30T00:18:28.832Z,5.15
2023-04-30T00:20:35.448Z,5.20
2023-04-30T00:22:40.459Z,5.12
2023-04-30T00:24:45.545Z,5.02
2023-04-30T00:26:50.834Z,4.94
2023-04-30T00:28:58.458Z,5.06
2023-04-30T00:31:06.868Z,4.91
2023-04-30T00:33:11.934Z,4.95
2023-04-30T00:35:17.505Z,4.91
2023-04-30T00:37:22.614Z,4.97
2023-04-30T00:39:27.733Z,4.97
2023-04-30T00:41:33.161Z,4.82
2023-04-30T00:43:38.311Z,4.64
2023-04-30T00:45:46.036Z,4.61
2023-04-30T00:47:51.560Z,4.53
2023-04-30T00:49:57.167Z,4.45
2023-04-30T00:52:02.316Z,4.56
2023-04-30T00:54:07.787Z,4.50
2023-04-30T00:56:13.315Z,4.43
2023-04-30T00:58:18.785Z,4.51
2023-04-30T01:00:24.449Z,4.53
2023-04-30T01:02:33.138Z,4.52
2023-04-30T01:04:38.572Z,4.46
2023-04-30T01:06:43.911Z,4.48
2023-04-30T01:08:49.619Z,4.43
2023-04-30T01:11:04.860Z,4.47
2023-04-30T01:13:15.493Z,4.35
2023-04-30T01:15:30.636Z,4.28
2023-04-30T01:17:45.021Z,4.26
2023-04-30T01:19:50.310Z,4.26
2023-04-30T01:21:57.633Z,4.30
2023-04-30T01:24:26.821Z,4.34
2023-04-30T01:26:56.080Z,4.35
2023-04-30T01:29:07.108Z,4.34
2023-04-30T01:31:17.200Z,4.32
2023-04-30T01:33:22.525Z,4.36
2023-04-30T01:35:45.324Z,4.42
2023-04-30T01:38:02.593Z,4.33
2023-04-30T01:40:26.780Z,4.38
2023-04-30T01:42:44.980Z,4.35
2023-04-30T01:45:12.383Z,4.39
2023-04-30T01:47:33.784Z,4.38
2023-04-30T01:49:51.046Z,4.38
2023-04-30T01:52:04.881Z,4.34
2023-04-30T01:54:20.902Z,4.31
2023-04-30T01:56:44.143Z,4.26
2023-04-30T01:58:51.089Z,4.21
2023-04-30T02:00:58.954Z,4.24
2023-04-30T02:03:05.094Z,4.26
2023-04-30T02:05:11.364Z,4.20
2023-04-30T02:07:40.457Z,4.19
2023-04-30T02:09:46.157Z,4.10
2023-04-30T02:11:51.312Z,3.96
2023-04-30T02:13:56.810Z,3.92
2023-04-30T02:16:04.590Z,3.82
2023-04-30T02:18:10.262Z,3.86
2023-04-30T02:20:15.518Z,3.81
2023-04-30T02:22:21.214Z,3.73
2023-04-30T02:24:26.822Z,3.74
2023-04-30T02:26:32.094Z,3.76
2023-04-30T02:28:37.652Z,3.75
2023-04-30T02:30:42.928Z,3.79
2023-04-30T02:32:50.833Z,3.69
2023-04-30T02:34:55.915Z,3.68
2023-04-30T02:37:02.922Z,3.58
2023-04-30T02:39:09.435Z,3.59
2023-04-30T02:41:14.514Z,3.69
2023-04-30T02:43:20.316Z,3.60
2023-04-30T02:45:25.412Z,3.49
2023-04-30T02:47:31.068Z,3.45
2023-04-30T02:49:40.140Z,3.38
2023-04-30T02:51:45.183Z,3.47
2023-04-30T02:53:53.403Z,3.48
2023-04-30T02:55:59.303Z,3.52
2023-04-30T02:58:04.358Z,3.57
2023-04-30T03:00:12.541Z,3.59
2023-04-30T03:02:21.683Z,3.51
2023-04-30T03:04:27.057Z,3.38
2023-04-30T03:06:34.825Z,3.33
2023-04-30T03:08:39.998Z,3.32
2023-04-30T03:10:45.017Z,3.20
2023-04-30T03:12:50.270Z,3.14
2023-04-30T03:14:56.468Z,3.19
2023-04-30T03:17:01.501Z,3.25
2023-04-30T03:19:07.011Z,3.21
2023-04-30T03:21:12.461Z,3.31
2023-04-30T03:23:20.245Z,3.35
2023-04-30T03:25:25.668Z,3.34
2023-04-30T03:27:30.703Z,3.32
2023-04-30T03:29:35.890Z,3.24
2023-04-30T03:31:41.109Z,3.25
2023-04-30T03:33:46.476Z,3.20
2023-04-30T03:35:52.057Z,3.18
2023-04-30T03:37:57.162Z,3.17
2023-04-30T03:40:06.923Z,3.18
2023-04-30T03:42:11.949Z,3.34
2023-04-30T03:44:18.002Z,3.41
2023-04-30T03:46:23.212Z,3.44
2023-04-30T03:48:28.312Z,3.53
2023-04-30T03:50:33.544Z,3.53
2023-04-30T03:52:39.019Z,3.53
2023-04-30T03:54:44.998Z,3.56
2023-04-30T03:56:52.800Z,3.70
2023-04-30T03:58:58.325Z,3.73
2023-04-30T04:01:03.520Z,3.76
2023-04-30T04:03:08.669Z,3.76
2023-04-30T04:05:13.844Z,3.76
2023-04-30T04:07:19.494Z,3.88
2023-04-30T04:09:24.612Z,3.97
2023-04-30T04:11:29.647Z,4.07
2023-04-30T04:13:38.328Z,4.13
2023-04-30T04:15:43.453Z,4.17
2023-04-30T04:17:49.237Z,4.14
2023-04-30T04:19:54.985Z,4.19
2023-04-30T04:22:00.381Z,4.17
2023-04-30T04:24:08.748Z,4.36
2023-04-30T04:26:15.313Z,4.28
2023-04-30T04:28:20.391Z,4.34
2023-04-30T04:30:28.784Z,4.31
2023-04-30T04:32:47.034Z,4.35
2023-04-30T04:34:54.662Z,4.34
2023-04-30T04:36:59.711Z,4.38
2023-04-30T04:39:05.039Z,4.40
2023-04-30T04:41:10.421Z,4.42
2023-04-30T04:43:15.868Z,4.47
2023-04-30T04:45:22.198Z,4.51
2023-04-30T04:47:31.529Z,4.62
2023-04-30T04:49:36.991Z,4.72
2023-04-30T04:51:42.676Z,4.72
2023-04-30T04:53:47.777Z,4.71
2023-04-30T04:55:53.358Z,4.76
2023-04-30T04:57:58.401Z,4.78
2023-04-30T05:00:04.238Z,4.81
2023-04-30T05:02:09.336Z,4.81
2023-04-30T05:04:17.411Z,4.87
2023-04-30T05:06:24.064Z,4.86
2023-04-30T05:08:29.130Z,4.88
2023-04-30T05:10:35.034Z,5.12
2023-04-30T05:12:40.249Z,5.18
2023-04-30T05:14:45.333Z,5.16
2023-04-30T05:16:50.813Z,5.11
2023-04-30T05:18:56.317Z,5.00
2023-04-30T05:21:05.090Z,4.96
2023-04-30T05:23:10.090Z,5.07
2023-04-30T05:25:15.489Z,5.02
2023-04-30T05:27:21.256Z,5.16
2023-04-30T05:29:26.537Z,5.10
2023-04-30T05:31:32.706Z,5.03
2023-04-30T05:33:37.751Z,5.09
2023-04-30T05:35:42.846Z,5.18
2023-04-30T05:37:50.529Z,5.21
2023-04-30T05:39:56.412Z,5.29
2023-04-30T05:42:02.953Z,5.35
2023-04-30T05:44:08.610Z,5.29
2023-04-30T05:46:14.168Z,5.31
2023-04-30T05:48:19.303Z,5.33
2023-04-30T05:50:24.385Z,5.24
2023-04-30T05:52:29.639Z,5.51
2023-04-30T05:54:37.372Z,5.42
2023-04-30T05:56:43.148Z,5.43
2023-04-30T05:58:48.198Z,5.69
2023-04-30T06:00:53.851Z,5.68
2023-04-30T06:02:59.045Z,5.67
2023-04-30T06:05:04.282Z,5.86
2023-04-30T06:07:09.676Z,5.92
2023-04-30T06:09:14.906Z,6.12
2023-04-30T06:11:23.099Z,6.06
2023-04-30T06:13:28.176Z,6.18
2023-04-30T06:15:33.314Z,6.31
2023-04-30T06:17:38.360Z,6.28
2023-04-30T06:19:43.433Z,6.34
2023-04-30T06:21:48.913Z,6.37
2023-04-30T06:23:53.938Z,6.56
2023-04-30T06:25:59.037Z,6.53
2023-04-30T06:28:08.494Z,6.59
2023-04-30T06:30:14.553Z,6.76
2023-04-30T06:32:20.077Z,6.90
2023-04-30T06:34:25.146Z,7.07
2023-04-30T06:36:30.169Z,7.06
2023-04-30T06:38:35.199Z,7.12
2023-04-30T06:40:40.281Z,7.33
2023-04-30T06:42:47.635Z,7.46
2023-04-30T06:44:55.913Z,7.57
2023-04-30T06:47:01.147Z,7.70
2023-04-30T06:49:06.166Z,7.83
2023-04-30T06:51:11.922Z,7.95
2023-04-30T06:53:17.698Z,8.23
2023-04-30T06:55:23.459Z,8.40
2023-04-30T06:57:28.807Z,8.41
2023-04-30T06:59:34.012Z,8.40
2023-04-30T07:01:41.673Z,8.51
2023-04-30T07:03:47.046Z,8.77
2023-04-30T07:05:54.174Z,8.88
2023-04-30T07:07:59.573Z,9.11
2023-04-30T07:10:04.613Z,9.22
2023-04-30T07:12:11.509Z,9.36
2023-04-30T07:14:16.530Z,9.57
2023-04-30T07:16:21.925Z,9.79
2023-04-30T07:18:29.577Z,9.85
2023-04-30T07:20:34.674Z,10.03
2023-04-30T07:22:40.142Z,10.16
2023-04-30T07:24:45.274Z,10.34
2023-04-30T07:26:50.429Z,10.42
2023-04-30T07:28:55.715Z,10.43
2023-04-30T07:31:00.833Z,10.51
2023-04-30T07:33:05.937Z,10.63
2023-04-30T07:35:14.759Z,10.82
2023-04-30T07:37:19.808Z,10.91
2023-04-30T07:39:24.830Z,11.07
2023-04-30T07:41:29.991Z,11.00
2023-04-30T07:43:35.026Z,11.19
2023-04-30T07:45:40.296Z,11.29
2023-04-30T07:47:45.624Z,11.34
2023-04-30T07:49:52.509Z,11.49
2023-04-30T07:52:01.068Z,11.47
2023-04-30T07:54:07.208Z,11.56
2023-04-30T07:56:12.237Z,11.77
2023-04-30T07:58:18.150Z,11.79
2023-04-30T08:00:23.389Z,11.79
2023-04-30T08:02:28.561Z,11.84
2023-04-30T08:04:34.424Z,11.93
2023-04-30T08:06:39.714Z,12.19
2023-04-30T08:08:48.673Z,12.45
2023-04-30T08:10:53.786Z,12.52
2023-04-30T08:12:58.816Z,12.57
2023-04-30T08:15:05.414Z,12.81
2023-04-30T08:17:10.620Z,12.93
2023-04-30T08:19:15.906Z,13.08
2023-04-30T08:21:21.022Z,13.33
2023-04-30T08:23:26.456Z,13.30
2023-04-30T08:25:34.380Z,13.43
2023-04-30T08:27:39.740Z,13.62
2023-04-30T08:29:45.284Z,13.77
2023-04-30T08:31:50.396Z,13.82
2023-04-30T08:33:55.686Z,14.04
2023-04-30T08:36:00.770Z,14.15
2023-04-30T08:38:06.164Z,14.24
2023-04-30T08:40:14.155Z,14.31
2023-04-30T08:42:24.391Z,14.29
2023-04-30T08:44:31.002Z,14.43
2023-04-30T08:46:37.921Z,14.37
2023-04-30T08:48:44.884Z,14.35
2023-04-30T08:50:49.940Z,14.46
2023-04-30T08:52:55.022Z,14.55
2023-04-30T08:55:01.631Z,14.91
2023-04-30T08:57:08.042Z,15.13
2023-04-30T08:59:16.490Z,15.18
2023-04-30T09:01:22.784Z,15.27
2023-04-30T09:03:28.641Z,15.44
2023-04-30T09:05:34.020Z,15.49
2023-04-30T09:07:46.120Z,15.61
2023-04-30T09:09:58.694Z,15.70
2023-04-30T09:12:19.315Z,15.73
2023-04-30T09:14:30.185Z,15.79
2023-04-30T09:16:50.585Z,15.87
2023-04-30T09:18:56.856Z,16.03
2023-04-30T09:21:03.666Z,16.17
2023-04-30T09:23:11.152Z,16.22
2023-04-30T09:25:16.490Z,16.21
2023-04-30T09:27:25.135Z,16.16
2023-04-30T09:29:40.919Z,16.51
2023-04-30T09:31:50.240Z,16.88
2023-04-30T09:33:56.371Z,16.96
2023-04-30T09:36:11.325Z,17.14
2023-04-30T09:38:31.206Z,17.01
2023-04-30T09:40:40.759Z,17.16
2023-04-30T09:43:01.888Z,17.20
2023-04-30T09:45:15.267Z,17.00
2023-04-30T09:47:21.946Z,16.81
2023-04-30T09:49:27.838Z,16.79
2023-04-30T09:51:33.564Z,16.90
2023-04-30T09:53:41.354Z,17.04
2023-04-30T09:55:47.931Z,17.02
2023-04-30T09:57:53.346Z,17.07
2023-04-30T09:59:59.398Z,17.17
2023-04-30T10:02:08.896Z,17.24
2023-04-30T10:04:14.204Z,17.11
2023-04-30T10:06:20.856Z,17.49
2023-04-30T10:08:31.269Z,17.77
2023-04-30T10:10:36.580Z,17.79
2023-04-30T10:12:46.963Z,18.00
2023-04-30T10:14:58.356Z,17.92
2023-04-30T10:17:16.887Z,17.34
2023-04-30T10:19:27.289Z,17.39
2023-04-30T10:21:34.346Z,17.39
2023-04-30T10:23:40.105Z,17.61
2023-04-30T10:25:46.122Z,17.95
2023-04-30T10:27:51.189Z,18.07
2023-04-30T10:29:58.033Z,18.44
2023-04-30T10:32:07.464Z,18.22
2023-04-30T10:34:24.686Z,18.34
2023-04-30T10:36:41.161Z,18.36
2023-04-30T10:38:48.532Z,18.27
2023-04-30T10:40:53.857Z,18.48
2023-04-30T10:42:58.923Z,18.33
2023-04-30T10:45:06.373Z,18.19
2023-04-30T10:47:14.702Z,18.45
2023-04-30T10:49:28.688Z,18.64
2023-04-30T10:51:51.834Z,18.48
2023-04-30T10:53:58.447Z,18.45
2023-04-30T10:56:09.469Z,18.75
2023-04-30T10:58:34.271Z,18.61
2023-04-30T11:00:39.827Z,18.84
2023-04-30T11:02:50.161Z,19.04
2023-04-30T11:05:19.035Z,19.17
2023-04-30T11:07:29.234Z,18.71
2023-04-30T11:09:44.349Z,18.57
2023-04-30T11:11:51.075Z,18.77
2023-04-30T11:14:03.631Z,18.78
2023-04-30T11:16:09.205Z,18.88
2023-04-30T11:18:17.238Z,19.22
2023-04-30T11:20:25.638Z,19.67
2023-04-30T11:22:36.444Z,19.85
2023-04-30T11:25:06.622Z,20.01
2023-04-30T11:27:16.129Z,19.69
2023-04-30T11:29:22.416Z,19.78
2023-04-30T11:31:37.105Z,19.58
2023-04-30T11:33:44.752Z,19.21
2023-04-30T11:35:52.229Z,19.41
2023-04-30T11:37:59.838Z,19.31
2023-04-30T11:40:07.959Z,19.03
2023-04-30T11:42:13.290Z,19.48
2023-04-30T11:44:29.320Z,19.82
2023-04-30T11:46:34.461Z,19.64
2023-04-30T11:48:42.392Z,19.91
2023-04-30T11:50:50.554Z,20.09
2023-04-30T11:52:57.523Z,20.46
2023-04-30T11:55:03.109Z,20.74
2023-04-30T11:57:08.863Z,21.19
2023-04-30T11:59:14.361Z,21.08
2023-04-30T12:01:21.275Z,20.90
2023-04-30T12:03:27.428Z,20.91
2023-04-30T12:05:32.585Z,20.82
2023-04-30T12:07:40.483Z,21.14
2023-04-30T12:09:58.533Z,20.92
2023-04-30T12:12:03.773Z,20.55
2023-04-30T12:14:11.576Z,20.57
2023-04-30T12:16:17.111Z,20.62
2023-04-30T12:18:22.138Z,20.49
2023-04-30T12:20:29.821Z,20.68
2023-04-30T12:22:35.801Z,20.91
2023-04-30T12:24:43.422Z,21.05
2023-04-30T12:26:49.306Z,20.77
2023-04-30T12:28:55.226Z,21.08
2023-04-30T12:31:00.290Z,21.02
2023-04-30T12:33:06.913Z,21.30
2023-04-30T12:35:16.769Z,20.92
2023-04-30T12:37:21.799Z,21.46
2023-04-30T12:39:27.575Z,21.75
2023-04-30T12:41:42.638Z,21.99
2023-04-30T12:43:47.616Z,22.44
2023-04-30T12:45:54.696Z,22.32
2023-04-30T12:47:59.940Z,22.22
2023-04-30T12:50:06.109Z,22.74
2023-04-30T12:52:15.557Z,23.16
2023-04-30T12:54:29.164Z,23.83
2023-04-30T12:56:36.848Z,23.64
2023-04-30T12:58:42.653Z,24.64
2023-04-30T13:00:52.895Z,24.91
2023-04-30T13:02:58.044Z,24.79
2023-04-30T13:05:04.322Z,25.20
2023-04-30T13:07:09.888Z,25.12
2023-04-30T13:09:15.675Z,25.28
2023-04-30T13:11:20.705Z,25.00
2023-04-30T13:13:29.486Z,24.74
2023-04-30T13:15:35.229Z,25.19
2023-04-30T13:17:40.865Z,25.12
2023-04-30T13:19:46.429Z,25.47
2023-04-30T13:21:51.457Z,26.10
2023-04-30T13:23:58.485Z,25.80
2023-04-30T13:26:05.158Z,25.77
2023-04-30T13:28:10.273Z,26.43
2023-04-30T13:30:19.059Z,26.85
2023-04-30T13:32:24.265Z,27.24
2023-04-30T13:34:29.996Z,26.69
2023-04-30T13:36:35.410Z,26.34
2023-04-30T13:38:41.747Z,26.38
2023-04-30T13:40:47.016Z,25.95
2023-04-30T13:42:52.259Z,26.19
2023-04-30T13:44:57.525Z,26.66
2023-04-30T13:47:05.208Z,27.29
2023-04-30T13:49:10.982Z,26.48
2023-04-30T13:51:16.097Z,26.32
2023-04-30T13:53:21.556Z,26.97
2023-04-30T13:55:27.212Z,26.91
2023-04-30T13:57:33.988Z,27.04
2023-04-30T13:59:39.717Z,27.60
2023-04-30T14:01:44.776Z,28.40
2023-04-30T14:03:52.731Z,28.49
2023-04-30T14:05:58.738Z,28.14
2023-04-30T14:08:03.753Z,28.18
2023-04-30T14:10:11.474Z,28.13
2023-04-30T14:12:16.517Z,27.75
2023-04-30T14:14:21.761Z,27.17
2023-04-30T14:16:27.706Z,27.17
2023-04-30T14:18:32.718Z,27.34
2023-04-30T14:20:40.971Z,28.05
2023-04-30T14:22:46.109Z,28.24
2023-04-30T14:24:51.562Z,28.08
2023-04-30T14:26:56.633Z,28.67
2023-04-30T14:29:01.637Z,28.14
2023-04-30T14:31:07.236Z,28.92
2023-04-30T14:33:13.171Z,28.75
2023-04-30T14:35:18.270Z,29.81
2023-04-30T14:37:25.917Z,29.54
2023-04-30T14:39:31.042Z,29.09
2023-04-30T14:41:39.049Z,27.21
2023-04-30T14:43:44.103Z,26.47
2023-04-30T14:45:49.644Z,26.38
2023-04-30T14:47:54.763Z,24.71
2023-04-30T14:50:02.349Z,24.69
2023-04-30T14:52:07.988Z,23.93
2023-04-30T14:54:15.652Z,24.48
2023-04-30T14:56:21.222Z,25.06
2023-04-30T14:58:26.262Z,25.36
2023-04-30T15:00:31.271Z,26.12
2023-04-30T15:02:36.416Z,26.39
2023-04-30T15:04:45.557Z,27.10
2023-04-30T15:06:50.982Z,26.70
2023-04-30T15:08:56.528Z,26.84
2023-04-30T15:11:07.331Z,26.06
2023-04-30T15:13:14.350Z,24.57
2023-04-30T15:15:21.401Z,23.64
2023-04-30T15:17:27.087Z,23.60
2023-04-30T15:19:33.313Z,24.19
2023-04-30T15:21:39.260Z,24.61
2023-04-30T15:23:44.363Z,23.83
2023-04-30T15:25:49.618Z,24.24
2023-04-30T15:27:58.469Z,24.92
2023-04-30T15:30:03.904Z,25.08
2023-04-30T15:32:09.453Z,24.67
2023-04-30T15:34:14.511Z,24.19
2023-04-30T15:36:20.523Z,22.98
2023-04-30T15:38:25.554Z,22.31
2023-04-30T15:40:31.163Z,21.77
2023-04-30T15:42:37.554Z,21.38
2023-04-30T15:44:45.176Z,21.16
2023-04-30T15:46:52.064Z,20.87
2023-04-30T15:48:57.225Z,20.72
2023-04-30T15:51:02.480Z,20.49
2023-04-30T15:53:07.847Z,20.56
2023-04-30T15:55:13.432Z,20.82
2023-04-30T15:57:18.561Z,22.14
2023-04-30T15:59:23.829Z,23.29
2023-04-30T16:01:31.595Z,24.21
2023-04-30T16:03:37.941Z,25.69
2023-04-30T16:05:43.960Z,26.90
2023-04-30T16:07:49.117Z,27.58
2023-04-30T16:09:54.331Z,26.38
2023-04-30T16:12:00.321Z,25.31
2023-04-30T16:14:05.557Z,23.69
2023-04-30T16:16:11.386Z,23.06
2023-04-30T16:18:19.008Z,22.65
2023-04-30T16:20:24.042Z,22.23
2023-04-30T16:22:30.369Z,22.74
2023-04-30T16:24:35.414Z,24.07
2023-04-30T16:26:40.876Z,25.53
2023-04-30T16:28:45.921Z,26.99
2023-04-30T16:30:50.939Z,26.87
2023-04-30T16:32:56.031Z,26.91
2023-04-30T16:35:03.713Z,27.60
2023-04-30T16:37:08.919Z,28.26
2023-04-30T16:39:16.848Z,28.56
2023-04-30T16:41:22.202Z,28.17
2023-04-30T16:43:27.240Z,28.61
2023-04-30T16:45:32.633Z,28.41
2023-04-30T16:47:38.031Z,27.74
2023-04-30T16:49:43.082Z,26.76
2023-04-30T16:51:51.071Z,26.78
2023-04-30T16:53:56.959Z,26.31
2023-04-30T16:56:01.980Z,26.21
2023-04-30T16:58:07.651Z,26.53
2023-04-30T17:00:14.911Z,26.24
2023-04-30T17:02:20.048Z,25.88
2023-04-30T17:04:25.572Z,25.36
2023-04-30T17:06:30.627Z,24.93
2023-04-30T17:08:40.518Z,24.55
2023-04-30T17:10:45.863Z,25.33
2023-04-30T17:12:51.283Z,25.69
2023-04-30T17:14:56.317Z,25.07
2023-04-30T17:17:01.861Z,24.73
2023-04-30T17:19:08.092Z,24.79
2023-04-30T17:21:13.265Z,24.28
2023-04-30T17:23:18.617Z,24.24
2023-04-30T17:25:26.385Z,23.49
2023-04-30T17:27:31.534Z,23.17
2023-04-30T17:29:36.826Z,22.50
2023-04-30T17:31:41.912Z,21.25
2023-04-30T17:33:47.050Z,20.51
2023-04-30T17:35:52.804Z,20.27
2023-04-30T17:37:58.077Z,19.65
2023-04-30T17:40:03.403Z,18.95
2023-04-30T17:42:11.043Z,18.61
2023-04-30T17:44:16.318Z,18.56
2023-04-30T17:46:22.569Z,18.12
2023-04-30T17:48:28.116Z,17.65
2023-04-30T17:50:33.862Z,17.41
2023-04-30T17:52:39.061Z,17.06
2023-04-30T17:54:44.337Z,16.83
2023-04-30T17:56:49.413Z,16.76
2023-04-30T17:58:57.521Z,16.59
2023-04-30T18:01:03.848Z,16.52
2023-04-30T18:03:08.952Z,16.38
2023-04-30T18:05:14.938Z,16.29
2023-04-30T18:07:20.016Z,16.14
2023-04-30T18:09:26.059Z,15.92
2023-04-30T18:11:31.445Z,15.77
2023-04-30T18:13:37.226Z,15.55
2023-04-30T18:15:44.825Z,15.42
2023-04-30T18:17:50.160Z,15.26
2023-04-30T18:19:56.004Z,15.08
2023-04-30T18:22:01.341Z,15.02
2023-04-30T18:24:07.314Z,14.85
2023-04-30T18:26:12.375Z,14.69
2023-04-30T18:28:17.935Z,14.51
2023-04-30T18:30:23.102Z,14.38
2023-04-30T18:32:31.259Z,14.29
2023-04-30T18:34:36.528Z,14.22
2023-04-30T18:36:43.110Z,14.09
2023-04-30T18:38:48.364Z,14.00
2023-04-30T18:40:56.749Z,13.89
2023-04-30T18:43:01.771Z,13.83
2023-04-30T18:45:09.170Z,13.67
2023-04-30T18:47:14.291Z,13.62
2023-04-30T18:49:21.886Z,13.53
2023-04-30T18:51:27.025Z,13.48
2023-04-30T18:53:32.307Z,13.43
2023-04-30T18:55:37.341Z,13.37
2023-04-30T18:57:43.418Z,13.21
2023-04-30T18:59:49.605Z,13.04
2023-04-30T19:01:54.906Z,12.93
2023-04-30T19:03:59.957Z,12.89
2023-04-30T19:06:07.721Z,12.80
2023-04-30T19:08:12.823Z,12.71
2023-04-30T19:10:18.082Z,12.62
2023-04-30T19:12:23.133Z,12.62
2023-04-30T19:14:28.238Z,12.58
2023-04-30T19:16:33.642Z,12.48
2023-04-30T19:18:39.694Z,12.40
2023-04-30T19:20:46.322Z,12.40
2023-04-30T19:22:53.919Z,12.41
2023-04-30T19:24:59.410Z,12.23
2023-04-30T19:27:04.710Z,12.08
2023-04-30T19:29:09.721Z,12.10
2023-04-30T19:31:15.306Z,12.13
2023-04-30T19:33:21.351Z,12.09
2023-04-30T19:35:26.666Z,11.92
2023-04-30T19:37:31.770Z,11.84
2023-04-30T19:39:40.424Z,11.81
2023-04-30T19:41:45.470Z,11.76
2023-04-30T19:43:52.477Z,11.61
2023-04-30T19:45:59.463Z,11.48
2023-04-30T19:48:04.527Z,11.36
2023-04-30T19:50:12.123Z,11.26
2023-04-30T19:52:17.301Z,11.11
2023-04-30T19:54:22.311Z,10.93
2023-04-30T19:56:31.227Z,10.69
2023-04-30T19:58:36.245Z,10.50
2023-04-30T20:00:45.560Z,10.22
2023-04-30T20:02:52.020Z,9.97
2023-04-30T20:04:57.799Z,9.83
2023-04-30T20:07:03.111Z,9.62
2023-04-30T20:09:08.140Z,9.56
2023-04-30T20:11:13.435Z,9.51
2023-04-30T20:13:22.724Z,9.46
2023-04-30T20:15:28.121Z,9.44
2023-04-30T20:17:34.064Z,9.34
2023-04-30T20:19:39.149Z,9.24
2023-04-30T20:21:44.408Z,9.22
2023-04-30T20:23:49.464Z,9.15
2023-04-30T20:25:55.438Z,9.04
2023-04-30T20:28:01.016Z,9.01
2023-04-30T20:30:10.647Z,9.03
2023-04-30T20:32:15.691Z,8.98
2023-04-30T20:34:20.702Z,8.84
2023-04-30T20:36:26.341Z,8.65
2023-04-30T20:38:31.736Z,8.53
2023-04-30T20:40:40.189Z,8.47
2023-04-30T20:42:45.222Z,8.44
2023-04-30T20:44:50.591Z,8.35
2023-04-30T20:46:58.555Z,8.31
2023-04-30T20:49:05.266Z,8.31
2023-04-30T20:51:10.745Z,8.20
2023-04-30T20:53:15.812Z,8.10
2023-04-30T20:55:21.246Z,7.91
2023-04-30T20:57:26.504Z,7.69
2023-04-30T20:59:31.815Z,7.55
2023-04-30T21:01:37.081Z,7.42
2023-04-30T21:03:44.760Z,7.32
2023-04-30T21:05:49.828Z,7.26
2023-04-30T21:07:55.188Z,7.27
2023-04-30T21:10:01.147Z,7.23
2023-04-30T21:12:07.867Z,7.19
2023-04-30T21:14:12.926Z,7.15
2023-04-30T21:16:18.005Z,7.09
2023-04-30T21:18:23.352Z,7.20
2023-04-30T21:20:31.718Z,7.25
2023-04-30T21:22:37.116Z,7.31
2023-04-30T21:24:42.183Z,7.18
2023-04-30T21:26:47.550Z,7.02
2023-04-30T21:28:53.435Z,6.84
2023-04-30T21:30:58.839Z,6.80
2023-04-30T21:33:04.902Z,6.97
2023-04-30T21:35:10.508Z,6.98
2023-04-30T21:37:18.583Z,6.96
2023-04-30T21:39:23.826Z,7.01
2023-04-30T21:41:30.329Z,6.99
2023-04-30T21:43:35.447Z,6.77
2023-04-30T21:45:42.036Z,6.66
2023-04-30T21:47:50.648Z,6.50
2023-04-30T21:49:56.221Z,6.62
2023-04-30T21:52:01.838Z,6.59
2023-04-30T21:54:09.558Z,6.56
2023-04-30T21:56:16.418Z,6.54
2023-04-30T21:58:21.646Z,6.54
2023-04-30T22:00:28.159Z,6.62
2023-04-30T22:02:33.233Z,6.51
2023-04-30T22:04:38.478Z,6.52
2023-04-30T22:06:43.583Z,6.56
2023-04-30T22:08:48.929Z,6.63
2023-04-30T22:10:59.828Z,6.67
2023-04-30T22:13:05.460Z,6.61
2023-04-30T22:15:12.326Z,6.58
2023-04-30T22:17:17.580Z,6.52
2023-04-30T22:19:23.080Z,6.39
2023-04-30T22:21:28.085Z,6.40
2023-04-30T22:23:34.053Z,6.46
2023-04-30T22:25:39.140Z,6.45
2023-04-30T22:27:47.881Z,6.45
2023-04-30T22:29:53.405Z,6.49
2023-04-30T22:31:59.416Z,6.44
2023-04-30T22:34:07.200Z,6.45
2023-04-30T22:36:12.209Z,6.35
2023-04-30T22:38:17.787Z,6.33
2023-04-30T22:40:22.815Z,6.12
2023-04-30T22:42:28.484Z,6.20
2023-04-30T22:44:37.950Z,6.09
2023-04-30T22:46:43.378Z,5.94
2023-04-30T22:48:48.670Z,6.04
2023-04-30T22:50:54.560Z,6.04
2023-04-30T22:52:59.921Z,6.02
2023-04-30T22:55:05.645Z,5.90
2023-04-30T22:57:10.691Z,5.89
2023-04-30T22:59:17.105Z,5.90
2023-04-30T23:01:24.810Z,5.94
2023-04-30T23:03:30.414Z,5.96
2023-04-30T23:05:35.599Z,6.03
2023-04-30T23:07:40.891Z,5.89
2023-04-30T23:09:45.980Z,5.91
2023-04-30T23:11:51.133Z,5.89
2023-04-30T23:13:56.784Z,5.85
2023-04-30T23:16:05.581Z,5.82
2023-04-30T23:18:13.337Z,5.67
2023-04-30T23:20:18.932Z,5.69
2023-04-30T23:22:23.915Z,5.73
2023-04-30T23:24:28.953Z,5.72
2023-04-30T23:26:34.263Z,5.65
2023-04-30T23:28:39.941Z,5.65
2023-04-30T23:30:45.088Z,5.64
2023-04-30T23:32:50.141Z,5.72
2023-04-30T23:34:57.883Z,5.91
2023-04-30T23:37:03.169Z,5.83
2023-04-30T23:39:08.560Z,5.86
2023-04-30T23:41:13.557Z,5.97
2023-04-30T23:43:18.578Z,5.93
2023-04-30T23:45:24.263Z,5.93
2023-04-30T23:47:30.730Z,5.93
2023-04-30T23:49:36.358Z,5.95
2023-04-30T23:51:43.964Z,6.07
2023-04-30T23:53:48.985Z,6.16
2023-04-30T23:55:53.970Z,6.24
2023-04-30T23:57:59.037Z,6.27
